sensor_id;sensor_type;location;lat;lon;timestamp;P1;durP1;ratioP1;P2;durP2;ratioP2
18596;SDS011;9428;50.950;6.912;2022-12-24T00:01:03;20.30;;;3.65;;
18596;SDS011;9428;50.950;6.912;2022-12-24T00:03:51;22.33;;;3.60;;
18596;SDS011;9428;50.950;6.912;2022-12-24T00:06:38;26.52;;;4.07;;
18596;SDS011;9428;50.950;6.912;2022-12-24T00:09:25;22.23;;;4.28;;
18596;SDS011;9428;50.950;6.912;2022-12-24T00:12:14;13.90;;;2.90;;
18596;SDS011;9428;50.950;6.912;2022-12-24T00:15:01;15.93;;;3.50;;
18596;SDS011;9428;50.950;6.912;2022-12-24T00:17:48;20.88;;;3.70;;
18596;SDS011;9428;50.950;6.912;2022-12-24T00:20:35;21.25;;;3.92;;
18596;SDS011;9428;50.950;6.912;2022-12-24T00:23:22;19.27;;;3.45;;
18596;SDS011;9428;50.950;6.912;2022-12-24T00:26:10;19.40;;;4.25;;
18596;SDS011;9428;50.950;6.912;2022-12-24T00:28:59;23.05;;;5.20;;
18596;SDS011;9428;50.950;6.912;2022-12-24T00:31:46;27.02;;;3.90;;
18596;SDS011;9428;50.950;6.912;2022-12-24T00:34:33;21.67;;;4.00;;
18596;SDS011;9428;50.950;6.912;2022-12-24T00:37:21;18.60;;;3.58;;
18596;SDS011;9428;50.950;6.912;2022-12-24T00:40:08;19.40;;;3.70;;
18596;SDS011;9428;50.950;6.912;2022-12-24T00:42:56;21.50;;;3.80;;
18596;SDS011;9428;50.950;6.912;2022-12-24T00:45:44;17.92;;;3.13;;
18596;SDS011;9428;50.950;6.912;2022-12-24T00:48:32;22.35;;;4.15;;
18596;SDS011;9428;50.950;6.912;2022-12-24T00:51:20;32.08;;;6.72;;
18596;SDS011;9428;50.950;6.912;2022-12-24T00:54:07;19.60;;;3.95;;
18596;SDS011;9428;50.950;6.912;2022-12-24T00:56:55;29.13;;;3.90;;
18596;SDS011;9428;50.950;6.912;2022-12-24T00:59:42;23.45;;;5.13;;
18596;SDS011;9428;50.950;6.912;2022-12-24T01:02:30;18.05;;;4.15;;
18596;SDS011;9428;50.950;6.912;2022-12-24T01:05:18;23.55;;;4.25;;
18596;SDS011;9428;50.950;6.912;2022-12-24T01:08:07;25.60;;;4.53;;
18596;SDS011;9428;50.950;6.912;2022-12-24T01:10:54;15.55;;;3.83;;
18596;SDS011;9428;50.950;6.912;2022-12-24T01:13:42;19.30;;;3.47;;
18596;SDS011;9428;50.950;6.912;2022-12-24T01:16:29;25.23;;;3.55;;
18596;SDS011;9428;50.950;6.912;2022-12-24T01:19:17;19.67;;;3.30;;
18596;SDS011;9428;50.950;6.912;2022-12-24T01:22:05;19.60;;;3.35;;
18596;SDS011;9428;50.950;6.912;2022-12-24T01:24:52;27.10;;;3.90;;
18596;SDS011;9428;50.950;6.912;2022-12-24T01:27:39;13.95;;;3.10;;
18596;SDS011;9428;50.950;6.912;2022-12-24T01:30:26;17.23;;;3.40;;
18596;SDS011;9428;50.950;6.912;2022-12-24T01:33:14;18.60;;;3.35;;
18596;SDS011;9428;50.950;6.912;2022-12-24T01:36:02;16.95;;;3.10;;
18596;SDS011;9428;50.950;6.912;2022-12-24T01:38:50;17.27;;;3.45;;
18596;SDS011;9428;50.950;6.912;2022-12-24T01:41:37;17.45;;;3.50;;
18596;SDS011;9428;50.950;6.912;2022-12-24T01:44:43;19.90;;;2.97;;
18596;SDS011;9428;50.950;6.912;2022-12-24T01:47:34;14.48;;;3.10;;
18596;SDS011;9428;50.950;6.912;2022-12-24T01:50:21;20.08;;;3.83;;
18596;SDS011;9428;50.950;6.912;2022-12-24T01:53:10;17.25;;;3.78;;
18596;SDS011;9428;50.950;6.912;2022-12-24T01:56:00;26.10;;;3.83;;
18596;SDS011;9428;50.950;6.912;2022-12-24T01:58:49;17.45;;;3.50;;
18596;SDS011;9428;50.950;6.912;2022-12-24T02:01:39;18.83;;;3.40;;
18596;SDS011;9428;50.950;6.912;2022-12-24T02:04:28;13.70;;;3.22;;
18596;SDS011;9428;50.950;6.912;2022-12-24T02:07:19;20.50;;;3.35;;
18596;SDS011;9428;50.950;6.912;2022-12-24T02:10:09;22.50;;;3.28;;
18596;SDS011;9428;50.950;6.912;2022-12-24T02:12:57;14.85;;;3.20;;
18596;SDS011;9428;50.950;6.912;2022-12-24T02:15:55;18.33;;;3.42;;
18596;SDS011;9428;50.950;6.912;2022-12-24T02:18:52;12.55;;;2.55;;
18596;SDS011;9428;50.950;6.912;2022-12-24T02:21:47;29.02;;;3.40;;
18596;SDS011;9428;50.950;6.912;2022-12-24T02:25:00;13.90;;;3.13;;
18596;SDS011;9428;50.950;6.912;2022-12-24T02:27:58;17.92;;;3.30;;
18596;SDS011;9428;50.950;6.912;2022-12-24T02:30:54;22.95;;;4.10;;
18596;SDS011;9428;50.950;6.912;2022-12-24T02:33:48;20.10;;;4.00;;
18596;SDS011;9428;50.950;6.912;2022-12-24T02:36:42;17.95;;;3.63;;
18596;SDS011;9428;50.950;6.912;2022-12-24T02:39:35;14.60;;;2.85;;
18596;SDS011;9428;50.950;6.912;2022-12-24T02:42:28;24.08;;;3.85;;
18596;SDS011;9428;50.950;6.912;2022-12-24T02:45:21;21.15;;;4.32;;
18596;SDS011;9428;50.950;6.912;2022-12-24T02:48:14;14.25;;;2.95;;
18596;SDS011;9428;50.950;6.912;2022-12-24T02:51:04;28.90;;;4.18;;
18596;SDS011;9428;50.950;6.912;2022-12-24T02:53:53;18.40;;;2.97;;
18596;SDS011;9428;50.950;6.912;2022-12-24T02:56:46;21.08;;;3.33;;
18596;SDS011;9428;50.950;6.912;2022-12-24T02:59:50;22.48;;;3.80;;
18596;SDS011;9428;50.950;6.912;2022-12-24T03:02:48;20.40;;;4.72;;
18596;SDS011;9428;50.950;6.912;2022-12-24T03:05:48;17.90;;;3.38;;
18596;SDS011;9428;50.950;6.912;2022-12-24T03:08:40;26.45;;;3.85;;
18596;SDS011;9428;50.950;6.912;2022-12-24T03:11:34;19.98;;;3.40;;
18596;SDS011;9428;50.950;6.912;2022-12-24T03:14:23;13.30;;;2.80;;
18596;SDS011;9428;50.950;6.912;2022-12-24T03:17:12;26.70;;;4.18;;
18596;SDS011;9428;50.950;6.912;2022-12-24T03:20:00;14.90;;;3.40;;
18596;SDS011;9428;50.950;6.912;2022-12-24T03:22:50;18.17;;;2.83;;
18596;SDS011;9428;50.950;6.912;2022-12-24T03:25:38;14.40;;;2.90;;
18596;SDS011;9428;50.950;6.912;2022-12-24T03:28:27;11.70;;;2.50;;
18596;SDS011;9428;50.950;6.912;2022-12-24T03:31:15;11.05;;;2.45;;
18596;SDS011;9428;50.950;6.912;2022-12-24T03:34:04;10.35;;;2.53;;
18596;SDS011;9428;50.950;6.912;2022-12-24T03:36:52;6.95;;;2.15;;
18596;SDS011;9428;50.950;6.912;2022-12-24T03:39:40;8.88;;;2.30;;
18596;SDS011;9428;50.950;6.912;2022-12-24T03:42:27;11.07;;;2.70;;
18596;SDS011;9428;50.950;6.912;2022-12-24T03:45:15;6.03;;;1.90;;
18596;SDS011;9428;50.950;6.912;2022-12-24T03:48:02;5.50;;;1.70;;
18596;SDS011;9428;50.950;6.912;2022-12-24T03:50:50;7.38;;;2.10;;
18596;SDS011;9428;50.950;6.912;2022-12-24T03:53:37;8.38;;;2.08;;
18596;SDS011;9428;50.950;6.912;2022-12-24T03:56:25;12.80;;;2.20;;
18596;SDS011;9428;50.950;6.912;2022-12-24T03:59:13;11.00;;;2.35;;
18596;SDS011;9428;50.950;6.912;2022-12-24T04:02:00;6.57;;;1.95;;
18596;SDS011;9428;50.950;6.912;2022-12-24T04:04:47;6.55;;;1.55;;
18596;SDS011;9428;50.950;6.912;2022-12-24T04:07:35;7.63;;;1.73;;
18596;SDS011;9428;50.950;6.912;2022-12-24T04:10:22;9.07;;;1.88;;
18596;SDS011;9428;50.950;6.912;2022-12-24T04:13:10;8.45;;;1.95;;
18596;SDS011;9428;50.950;6.912;2022-12-24T04:15:58;9.02;;;1.58;;
18596;SDS011;9428;50.950;6.912;2022-12-24T04:18:46;6.70;;;1.42;;
18596;SDS011;9428;50.950;6.912;2022-12-24T04:21:33;5.38;;;2.05;;
18596;SDS011;9428;50.950;6.912;2022-12-24T04:24:20;10.98;;;2.00;;
18596;SDS011;9428;50.950;6.912;2022-12-24T04:27:07;6.85;;;1.50;;
18596;SDS011;9428;50.950;6.912;2022-12-24T04:29:56;7.50;;;1.48;;
18596;SDS011;9428;50.950;6.912;2022-12-24T04:32:43;9.70;;;1.58;;
18596;SDS011;9428;50.950;6.912;2022-12-24T04:35:30;7.72;;;1.63;;
18596;SDS011;9428;50.950;6.912;2022-12-24T04:38:18;8.52;;;1.77;;
18596;SDS011;9428;50.950;6.912;2022-12-24T04:41:06;5.28;;;1.52;;
18596;SDS011;9428;50.950;6.912;2022-12-24T04:43:54;8.20;;;2.25;;
18596;SDS011;9428;50.950;6.912;2022-12-24T04:46:42;9.90;;;2.13;;
18596;SDS011;9428;50.950;6.912;2022-12-24T04:49:30;6.73;;;1.47;;
18596;SDS011;9428;50.950;6.912;2022-12-24T04:52:17;8.55;;;1.63;;
18596;SDS011;9428;50.950;6.912;2022-12-24T04:55:04;6.50;;;1.90;;
18596;SDS011;9428;50.950;6.912;2022-12-24T04:57:52;8.38;;;1.65;;
18596;SDS011;9428;50.950;6.912;2022-12-24T05:00:39;9.07;;;2.03;;
18596;SDS011;9428;50.950;6.912;2022-12-24T05:03:28;7.28;;;1.60;;
18596;SDS011;9428;50.950;6.912;2022-12-24T05:06:16;8.60;;;1.77;;
18596;SDS011;9428;50.950;6.912;2022-12-24T05:09:04;6.07;;;1.65;;
18596;SDS011;9428;50.950;6.912;2022-12-24T05:11:52;9.00;;;1.85;;
18596;SDS011;9428;50.950;6.912;2022-12-24T05:14:39;5.70;;;1.48;;
18596;SDS011;9428;50.950;6.912;2022-12-24T05:17:26;7.50;;;1.70;;
18596;SDS011;9428;50.950;6.912;2022-12-24T05:20:15;7.63;;;1.95;;
18596;SDS011;9428;50.950;6.912;2022-12-24T05:23:02;6.55;;;1.80;;
18596;SDS011;9428;50.950;6.912;2022-12-24T05:26:09;9.13;;;2.15;;
18596;SDS011;9428;50.950;6.912;2022-12-24T05:29:09;7.32;;;2.13;;
18596;SDS011;9428;50.950;6.912;2022-12-24T05:31:57;3.03;;;1.50;;
18596;SDS011;9428;50.950;6.912;2022-12-24T05:34:44;11.35;;;1.77;;
18596;SDS011;9428;50.950;6.912;2022-12-24T05:37:33;6.07;;;1.83;;
18596;SDS011;9428;50.950;6.912;2022-12-24T05:40:20;9.70;;;1.80;;
18596;SDS011;9428;50.950;6.912;2022-12-24T05:43:07;11.43;;;1.95;;
18596;SDS011;9428;50.950;6.912;2022-12-24T05:45:56;13.82;;;2.63;;
18596;SDS011;9428;50.950;6.912;2022-12-24T05:48:44;10.70;;;2.10;;
18596;SDS011;9428;50.950;6.912;2022-12-24T05:51:32;8.50;;;2.25;;
18596;SDS011;9428;50.950;6.912;2022-12-24T05:54:21;12.38;;;2.72;;
18596;SDS011;9428;50.950;6.912;2022-12-24T05:57:08;9.65;;;2.15;;
18596;SDS011;9428;50.950;6.912;2022-12-24T05:59:55;9.27;;;2.15;;
18596;SDS011;9428;50.950;6.912;2022-12-24T06:02:42;12.70;;;2.05;;
18596;SDS011;9428;50.950;6.912;2022-12-24T06:05:30;13.77;;;2.50;;
18596;SDS011;9428;50.950;6.912;2022-12-24T06:08:17;13.13;;;3.10;;
18596;SDS011;9428;50.950;6.912;2022-12-24T06:11:06;15.10;;;2.63;;
18596;SDS011;9428;50.950;6.912;2022-12-24T06:13:55;10.13;;;2.45;;
18596;SDS011;9428;50.950;6.912;2022-12-24T06:16:42;14.60;;;2.70;;
18596;SDS011;9428;50.950;6.912;2022-12-24T06:19:29;10.63;;;2.38;;
18596;SDS011;9428;50.950;6.912;2022-12-24T06:22:16;13.52;;;2.70;;
18596;SDS011;9428;50.950;6.912;2022-12-24T06:25:04;14.05;;;3.30;;
18596;SDS011;9428;50.950;6.912;2022-12-24T06:27:53;15.85;;;3.05;;
18596;SDS011;9428;50.950;6.912;2022-12-24T06:30:40;14.63;;;3.05;;
18596;SDS011;9428;50.950;6.912;2022-12-24T06:33:31;13.27;;;2.97;;
18596;SDS011;9428;50.950;6.912;2022-12-24T06:36:20;15.98;;;3.88;;
18596;SDS011;9428;50.950;6.912;2022-12-24T06:39:09;12.10;;;3.17;;
18596;SDS011;9428;50.950;6.912;2022-12-24T06:41:56;16.27;;;4.10;;
18596;SDS011;9428;50.950;6.912;2022-12-24T06:44:44;15.50;;;3.40;;
18596;SDS011;9428;50.950;6.912;2022-12-24T06:47:31;14.27;;;3.65;;
18596;SDS011;9428;50.950;6.912;2022-12-24T06:50:19;19.23;;;3.83;;
18596;SDS011;9428;50.950;6.912;2022-12-24T06:53:06;10.18;;;3.20;;
18596;SDS011;9428;50.950;6.912;2022-12-24T06:55:59;19.45;;;3.83;;
18596;SDS011;9428;50.950;6.912;2022-12-24T06:58:47;19.45;;;3.80;;
18596;SDS011;9428;50.950;6.912;2022-12-24T07:01:35;16.63;;;3.27;;
18596;SDS011;9428;50.950;6.912;2022-12-24T07:04:23;20.98;;;3.70;;
18596;SDS011;9428;50.950;6.912;2022-12-24T07:07:10;13.90;;;3.22;;
18596;SDS011;9428;50.950;6.912;2022-12-24T07:09:57;20.23;;;4.13;;
18596;SDS011;9428;50.950;6.912;2022-12-24T07:12:44;19.40;;;3.63;;
18596;SDS011;9428;50.950;6.912;2022-12-24T07:15:32;16.58;;;3.45;;
18596;SDS011;9428;50.950;6.912;2022-12-24T07:18:20;24.25;;;3.53;;
18596;SDS011;9428;50.950;6.912;2022-12-24T07:21:07;17.25;;;3.75;;
18596;SDS011;9428;50.950;6.912;2022-12-24T07:23:55;26.38;;;4.57;;
18596;SDS011;9428;50.950;6.912;2022-12-24T07:26:42;22.77;;;3.95;;
18596;SDS011;9428;50.950;6.912;2022-12-24T07:29:29;15.38;;;3.83;;
18596;SDS011;9428;50.950;6.912;2022-12-24T07:32:16;20.98;;;4.28;;
18596;SDS011;9428;50.950;6.912;2022-12-24T07:35:06;15.07;;;3.50;;
18596;SDS011;9428;50.950;6.912;2022-12-24T07:37:54;22.13;;;4.35;;
18596;SDS011;9428;50.950;6.912;2022-12-24T07:40:41;26.40;;;6.05;;
18596;SDS011;9428;50.950;6.912;2022-12-24T07:43:28;24.70;;;4.15;;
18596;SDS011;9428;50.950;6.912;2022-12-24T07:46:17;20.70;;;4.18;;
18596;SDS011;9428;50.950;6.912;2022-12-24T07:49:05;24.05;;;4.50;;
18596;SDS011;9428;50.950;6.912;2022-12-24T07:51:53;24.55;;;4.05;;
18596;SDS011;9428;50.950;6.912;2022-12-24T07:54:41;22.00;;;4.15;;
18596;SDS011;9428;50.950;6.912;2022-12-24T07:57:28;21.83;;;3.53;;
18596;SDS011;9428;50.950;6.912;2022-12-24T08:00:15;18.55;;;3.60;;
18596;SDS011;9428;50.950;6.912;2022-12-24T08:03:03;17.83;;;4.00;;
18596;SDS011;9428;50.950;6.912;2022-12-24T08:05:50;21.80;;;3.83;;
18596;SDS011;9428;50.950;6.912;2022-12-24T08:08:39;20.33;;;4.00;;
18596;SDS011;9428;50.950;6.912;2022-12-24T08:11:26;20.80;;;4.40;;
18596;SDS011;9428;50.950;6.912;2022-12-24T08:14:13;19.85;;;3.92;;
18596;SDS011;9428;50.950;6.912;2022-12-24T08:17:01;21.67;;;4.47;;
18596;SDS011;9428;50.950;6.912;2022-12-24T08:19:48;19.42;;;4.13;;
18596;SDS011;9428;50.950;6.912;2022-12-24T08:22:35;12.43;;;3.38;;
18596;SDS011;9428;50.950;6.912;2022-12-24T08:25:24;21.77;;;4.05;;
18596;SDS011;9428;50.950;6.912;2022-12-24T08:28:11;27.50;;;4.55;;
18596;SDS011;9428;50.950;6.912;2022-12-24T08:30:59;17.50;;;3.55;;
18596;SDS011;9428;50.950;6.912;2022-12-24T08:33:46;21.27;;;3.85;;
18596;SDS011;9428;50.950;6.912;2022-12-24T08:36:34;17.90;;;3.95;;
18596;SDS011;9428;50.950;6.912;2022-12-24T08:39:21;21.73;;;4.05;;
18596;SDS011;9428;50.950;6.912;2022-12-24T08:42:10;25.60;;;4.78;;
18596;SDS011;9428;50.950;6.912;2022-12-24T08:44:58;19.92;;;4.43;;
18596;SDS011;9428;50.950;6.912;2022-12-24T08:47:45;24.08;;;4.40;;
18596;SDS011;9428;50.950;6.912;2022-12-24T08:50:32;21.60;;;4.18;;
18596;SDS011;9428;50.950;6.912;2022-12-24T08:53:20;21.35;;;3.88;;
18596;SDS011;9428;50.950;6.912;2022-12-24T08:56:08;13.55;;;3.35;;
18596;SDS011;9428;50.950;6.912;2022-12-24T08:58:57;22.67;;;4.05;;
18596;SDS011;9428;50.950;6.912;2022-12-24T09:01:44;23.02;;;4.28;;
18596;SDS011;9428;50.950;6.912;2022-12-24T09:04:31;22.65;;;3.50;;
18596;SDS011;9428;50.950;6.912;2022-12-24T09:07:19;27.65;;;4.88;;
18596;SDS011;9428;50.950;6.912;2022-12-24T09:10:06;20.17;;;4.78;;
18596;SDS011;9428;50.950;6.912;2022-12-24T09:12:56;17.52;;;4.10;;
18596;SDS011;9428;50.950;6.912;2022-12-24T09:15:52;21.38;;;4.25;;
18596;SDS011;9428;50.950;6.912;2022-12-24T09:18:39;26.83;;;4.50;;
18596;SDS011;9428;50.950;6.912;2022-12-24T09:21:26;20.27;;;3.60;;
18596;SDS011;9428;50.950;6.912;2022-12-24T09:24:14;29.00;;;4.03;;
18596;SDS011;9428;50.950;6.912;2022-12-24T09:27:01;21.73;;;4.45;;
18596;SDS011;9428;50.950;6.912;2022-12-24T09:29:48;16.95;;;3.40;;
18596;SDS011;9428;50.950;6.912;2022-12-24T09:32:37;18.55;;;4.28;;
18596;SDS011;9428;50.950;6.912;2022-12-24T09:35:24;25.73;;;4.25;;
18596;SDS011;9428;50.950;6.912;2022-12-24T09:38:11;24.45;;;4.28;;
18596;SDS011;9428;50.950;6.912;2022-12-24T09:40:58;22.48;;;4.65;;
18596;SDS011;9428;50.950;6.912;2022-12-24T09:43:48;13.77;;;3.70;;
18596;SDS011;9428;50.950;6.912;2022-12-24T09:46:41;26.70;;;3.95;;
18596;SDS011;9428;50.950;6.912;2022-12-24T09:49:34;25.48;;;4.65;;
18596;SDS011;9428;50.950;6.912;2022-12-24T09:52:26;18.52;;;4.43;;
18596;SDS011;9428;50.950;6.912;2022-12-24T09:55:19;25.98;;;6.43;;
18596;SDS011;9428;50.950;6.912;2022-12-24T09:58:15;36.30;;;7.05;;
18596;SDS011;9428;50.950;6.912;2022-12-24T10:01:09;23.70;;;5.30;;
18596;SDS011;9428;50.950;6.912;2022-12-24T10:03:59;26.95;;;5.53;;
18596;SDS011;9428;50.950;6.912;2022-12-24T10:06:52;26.05;;;4.80;;
18596;SDS011;9428;50.950;6.912;2022-12-24T10:09:46;25.48;;;4.22;;
18596;SDS011;9428;50.950;6.912;2022-12-24T10:12:44;22.20;;;4.78;;
18596;SDS011;9428;50.950;6.912;2022-12-24T10:15:38;22.08;;;4.68;;
18596;SDS011;9428;50.950;6.912;2022-12-24T10:18:30;19.80;;;4.80;;
18596;SDS011;9428;50.950;6.912;2022-12-24T10:21:26;25.25;;;5.35;;
18596;SDS011;9428;50.950;6.912;2022-12-24T10:24:23;18.75;;;4.18;;
18596;SDS011;9428;50.950;6.912;2022-12-24T10:27:16;21.40;;;4.53;;
18596;SDS011;9428;50.950;6.912;2022-12-24T10:30:11;32.10;;;4.88;;
18596;SDS011;9428;50.950;6.912;2022-12-24T10:33:00;29.13;;;5.07;;
18596;SDS011;9428;50.950;6.912;2022-12-24T10:35:49;28.63;;;4.90;;
18596;SDS011;9428;50.950;6.912;2022-12-24T10:38:40;25.83;;;5.25;;
18596;SDS011;9428;50.950;6.912;2022-12-24T10:41:29;23.50;;;4.53;;
18596;SDS011;9428;50.950;6.912;2022-12-24T10:44:18;24.35;;;5.45;;
18596;SDS011;9428;50.950;6.912;2022-12-24T10:47:09;26.63;;;5.82;;
18596;SDS011;9428;50.950;6.912;2022-12-24T10:49:59;18.48;;;4.22;;
18596;SDS011;9428;50.950;6.912;2022-12-24T10:52:49;23.30;;;4.45;;
18596;SDS011;9428;50.950;6.912;2022-12-24T10:55:40;21.63;;;4.22;;
18596;SDS011;9428;50.950;6.912;2022-12-24T10:58:29;24.00;;;4.32;;
18596;SDS011;9428;50.950;6.912;2022-12-24T11:01:16;19.98;;;4.28;;
18596;SDS011;9428;50.950;6.912;2022-12-24T11:04:04;24.75;;;4.53;;
18596;SDS011;9428;50.950;6.912;2022-12-24T11:06:52;26.60;;;4.38;;
18596;SDS011;9428;50.950;6.912;2022-12-24T11:09:44;28.73;;;5.00;;
18596;SDS011;9428;50.950;6.912;2022-12-24T11:12:45;24.58;;;4.50;;
18596;SDS011;9428;50.950;6.912;2022-12-24T11:15:35;20.27;;;3.72;;
18596;SDS011;9428;50.950;6.912;2022-12-24T11:18:23;24.27;;;4.50;;
18596;SDS011;9428;50.950;6.912;2022-12-24T11:21:10;27.05;;;4.40;;
18596;SDS011;9428;50.950;6.912;2022-12-24T11:24:06;22.33;;;4.00;;
18596;SDS011;9428;50.950;6.912;2022-12-24T11:27:22;25.45;;;4.65;;
18596;SDS011;9428;50.950;6.912;2022-12-24T11:30:20;18.73;;;3.92;;
18596;SDS011;9428;50.950;6.912;2022-12-24T11:33:19;20.52;;;4.82;;
18596;SDS011;9428;50.950;6.912;2022-12-24T11:36:09;24.65;;;5.93;;
18596;SDS011;9428;50.950;6.912;2022-12-24T11:38:59;28.80;;;5.82;;
18596;SDS011;9428;50.950;6.912;2022-12-24T11:41:46;21.98;;;4.57;;
18596;SDS011;9428;50.950;6.912;2022-12-24T11:44:35;21.35;;;4.43;;
18596;SDS011;9428;50.950;6.912;2022-12-24T11:47:34;33.20;;;5.32;;
18596;SDS011;9428;50.950;6.912;2022-12-24T11:50:25;25.35;;;4.78;;
18596;SDS011;9428;50.950;6.912;2022-12-24T11:53:16;23.98;;;5.07;;
18596;SDS011;9428;50.950;6.912;2022-12-24T11:56:11;31.42;;;5.82;;
18596;SDS011;9428;50.950;6.912;2022-12-24T11:59:12;22.40;;;4.35;;
18596;SDS011;9428;50.950;6.912;2022-12-24T12:02:03;18.17;;;4.35;;
18596;SDS011;9428;50.950;6.912;2022-12-24T12:05:03;25.13;;;5.85;;
18596;SDS011;9428;50.950;6.912;2022-12-24T12:07:57;35.47;;;8.00;;
18596;SDS011;9428;50.950;6.912;2022-12-24T12:10:53;29.15;;;6.50;;
18596;SDS011;9428;50.950;6.912;2022-12-24T12:13:43;30.60;;;7.60;;
18596;SDS011;9428;50.950;6.912;2022-12-24T12:16:36;20.75;;;6.82;;
18596;SDS011;9428;50.950;6.912;2022-12-24T12:19:50;32.47;;;6.60;;
18596;SDS011;9428;50.950;6.912;2022-12-24T12:22:44;23.90;;;5.50;;
18596;SDS011;9428;50.950;6.912;2022-12-24T12:25:40;21.60;;;4.47;;
18596;SDS011;9428;50.950;6.912;2022-12-24T12:28:34;25.40;;;5.47;;
18596;SDS011;9428;50.950;6.912;2022-12-24T12:31:27;32.47;;;5.15;;
18596;SDS011;9428;50.950;6.912;2022-12-24T12:34:20;18.35;;;4.93;;
18596;SDS011;9428;50.950;6.912;2022-12-24T12:37:16;19.08;;;4.47;;
18596;SDS011;9428;50.950;6.912;2022-12-24T12:40:11;21.13;;;4.15;;
18596;SDS011;9428;50.950;6.912;2022-12-24T12:43:02;29.05;;;5.15;;
18596;SDS011;9428;50.950;6.912;2022-12-24T12:45:56;26.08;;;7.30;;
18596;SDS011;9428;50.950;6.912;2022-12-24T12:48:54;29.35;;;8.60;;
18596;SDS011;9428;50.950;6.912;2022-12-24T12:51:52;24.33;;;6.47;;
18596;SDS011;9428;50.950;6.912;2022-12-24T12:54:50;23.48;;;5.75;;
18596;SDS011;9428;50.950;6.912;2022-12-24T12:57:47;26.25;;;6.00;;
18596;SDS011;9428;50.950;6.912;2022-12-24T13:00:39;23.80;;;5.22;;
18596;SDS011;9428;50.950;6.912;2022-12-24T13:03:42;21.25;;;4.97;;
18596;SDS011;9428;50.950;6.912;2022-12-24T13:06:57;36.50;;;10.52;;
18596;SDS011;9428;50.950;6.912;2022-12-24T13:16:53;29.92;;;5.40;;
18596;SDS011;9428;50.950;6.912;2022-12-24T13:19:59;23.95;;;4.82;;
18596;SDS011;9428;50.950;6.912;2022-12-24T13:22:56;16.75;;;4.63;;
18596;SDS011;9428;50.950;6.912;2022-12-24T13:25:46;24.98;;;5.25;;
18596;SDS011;9428;50.950;6.912;2022-12-24T13:28:35;21.52;;;4.25;;
18596;SDS011;9428;50.950;6.912;2022-12-24T13:31:25;20.10;;;4.13;;
18596;SDS011;9428;50.950;6.912;2022-12-24T13:37:19;27.92;;;6.45;;
18596;SDS011;9428;50.950;6.912;2022-12-24T13:40:14;28.10;;;7.18;;
18596;SDS011;9428;50.950;6.912;2022-12-24T13:43:07;20.45;;;5.50;;
18596;SDS011;9428;50.950;6.912;2022-12-24T13:45:56;20.40;;;5.22;;
18596;SDS011;9428;50.950;6.912;2022-12-24T13:48:44;25.60;;;6.97;;
18596;SDS011;9428;50.950;6.912;2022-12-24T13:51:31;20.48;;;5.45;;
18596;SDS011;9428;50.950;6.912;2022-12-24T13:54:23;14.32;;;4.20;;
18596;SDS011;9428;50.950;6.912;2022-12-24T13:57:28;22.75;;;5.47;;
18596;SDS011;9428;50.950;6.912;2022-12-24T14:00:25;20.15;;;4.68;;
18596;SDS011;9428;50.950;6.912;2022-12-24T14:03:21;15.02;;;4.60;;
18596;SDS011;9428;50.950;6.912;2022-12-24T14:06:12;25.25;;;7.63;;
18596;SDS011;9428;50.950;6.912;2022-12-24T14:09:08;26.83;;;7.78;;
18596;SDS011;9428;50.950;6.912;2022-12-24T14:12:28;19.02;;;5.10;;
18596;SDS011;9428;50.950;6.912;2022-12-24T14:18:49;18.63;;;5.38;;
18596;SDS011;9428;50.950;6.912;2022-12-24T14:21:48;26.05;;;6.30;;
18596;SDS011;9428;50.950;6.912;2022-12-24T14:24:40;22.13;;;7.30;;
18596;SDS011;9428;50.950;6.912;2022-12-24T14:27:33;34.15;;;12.18;;
18596;SDS011;9428;50.950;6.912;2022-12-24T14:30:30;21.73;;;6.88;;
18596;SDS011;9428;50.950;6.912;2022-12-24T14:33:26;30.08;;;9.00;;
18596;SDS011;9428;50.950;6.912;2022-12-24T14:36:18;20.95;;;4.07;;
18596;SDS011;9428;50.950;6.912;2022-12-24T14:39:09;26.05;;;7.28;;
18596;SDS011;9428;50.950;6.912;2022-12-24T14:42:09;17.17;;;6.00;;
18596;SDS011;9428;50.950;6.912;2022-12-24T14:45:18;19.20;;;5.55;;
18596;SDS011;9428;50.950;6.912;2022-12-24T14:48:16;23.63;;;9.50;;
18596;SDS011;9428;50.950;6.912;2022-12-24T14:51:12;30.48;;;14.10;;
18596;SDS011;9428;50.950;6.912;2022-12-24T14:54:14;15.43;;;4.78;;
18596;SDS011;9428;50.950;6.912;2022-12-24T14:57:20;22.58;;;7.25;;
18596;SDS011;9428;50.950;6.912;2022-12-24T15:00:17;27.50;;;7.57;;
18596;SDS011;9428;50.950;6.912;2022-12-24T15:03:07;27.60;;;6.30;;
18596;SDS011;9428;50.950;6.912;2022-12-24T15:05:59;26.00;;;6.53;;
18596;SDS011;9428;50.950;6.912;2022-12-24T15:08:48;30.05;;;10.45;;
18596;SDS011;9428;50.950;6.912;2022-12-24T15:11:36;38.42;;;16.73;;
18596;SDS011;9428;50.950;6.912;2022-12-24T15:14:24;35.13;;;11.02;;
18596;SDS011;9428;50.950;6.912;2022-12-24T15:17:16;27.98;;;9.98;;
18596;SDS011;9428;50.950;6.912;2022-12-24T15:20:03;24.50;;;7.85;;
18596;SDS011;9428;50.950;6.912;2022-12-24T15:22:53;18.58;;;4.95;;
18596;SDS011;9428;50.950;6.912;2022-12-24T15:25:41;22.85;;;4.95;;
18596;SDS011;9428;50.950;6.912;2022-12-24T15:28:34;16.10;;;4.50;;
18596;SDS011;9428;50.950;6.912;2022-12-24T15:31:24;21.42;;;4.90;;
18596;SDS011;9428;50.950;6.912;2022-12-24T15:34:23;20.65;;;3.65;;
18596;SDS011;9428;50.950;6.912;2022-12-24T15:37:13;24.83;;;5.03;;
18596;SDS011;9428;50.950;6.912;2022-12-24T15:40:05;16.13;;;4.75;;
18596;SDS011;9428;50.950;6.912;2022-12-24T15:42:56;17.38;;;4.00;;
18596;SDS011;9428;50.950;6.912;2022-12-24T15:45:43;17.33;;;4.40;;
18596;SDS011;9428;50.950;6.912;2022-12-24T15:48:32;28.17;;;5.13;;
18596;SDS011;9428;50.950;6.912;2022-12-24T15:51:25;22.92;;;4.53;;
18596;SDS011;9428;50.950;6.912;2022-12-24T15:54:15;18.02;;;4.50;;
18596;SDS011;9428;50.950;6.912;2022-12-24T15:57:13;23.35;;;5.32;;
18596;SDS011;9428;50.950;6.912;2022-12-24T16:00:18;15.68;;;4.35;;
18596;SDS011;9428;50.950;6.912;2022-12-24T16:03:15;16.70;;;4.28;;
18596;SDS011;9428;50.950;6.912;2022-12-24T16:06:04;21.27;;;4.30;;
18596;SDS011;9428;50.950;6.912;2022-12-24T16:08:53;21.65;;;4.70;;
18596;SDS011;9428;50.950;6.912;2022-12-24T16:11:41;19.50;;;4.93;;
18596;SDS011;9428;50.950;6.912;2022-12-24T16:14:29;22.92;;;4.72;;
18596;SDS011;9428;50.950;6.912;2022-12-24T16:17:19;16.58;;;4.85;;
18596;SDS011;9428;50.950;6.912;2022-12-24T16:20:14;23.08;;;5.20;;
18596;SDS011;9428;50.950;6.912;2022-12-24T16:23:13;17.58;;;5.78;;
18596;SDS011;9428;50.950;6.912;2022-12-24T16:26:04;25.02;;;5.93;;
18596;SDS011;9428;50.950;6.912;2022-12-24T16:28:53;23.75;;;5.40;;
18596;SDS011;9428;50.950;6.912;2022-12-24T16:31:42;22.55;;;5.88;;
18596;SDS011;9428;50.950;6.912;2022-12-24T16:34:32;24.15;;;5.80;;
18596;SDS011;9428;50.950;6.912;2022-12-24T16:37:19;25.65;;;7.28;;
18596;SDS011;9428;50.950;6.912;2022-12-24T16:40:11;28.02;;;6.13;;
18596;SDS011;9428;50.950;6.912;2022-12-24T16:43:01;18.00;;;6.10;;
18596;SDS011;9428;50.950;6.912;2022-12-24T16:46:05;17.92;;;5.70;;
18596;SDS011;9428;50.950;6.912;2022-12-24T16:48:53;24.13;;;5.57;;
18596;SDS011;9428;50.950;6.912;2022-12-24T16:51:40;22.63;;;5.72;;
18596;SDS011;9428;50.950;6.912;2022-12-24T16:54:27;28.00;;;5.45;;
18596;SDS011;9428;50.950;6.912;2022-12-24T16:57:14;21.10;;;5.60;;
18596;SDS011;9428;50.950;6.912;2022-12-24T17:00:03;21.67;;;5.70;;
18596;SDS011;9428;50.950;6.912;2022-12-24T17:02:53;17.65;;;5.38;;
18596;SDS011;9428;50.950;6.912;2022-12-24T17:05:41;24.23;;;5.60;;
18596;SDS011;9428;50.950;6.912;2022-12-24T17:08:29;24.13;;;5.82;;
18596;SDS011;9428;50.950;6.912;2022-12-24T17:11:16;18.67;;;5.40;;
18596;SDS011;9428;50.950;6.912;2022-12-24T17:14:08;28.67;;;6.53;;
18596;SDS011;9428;50.950;6.912;2022-12-24T17:16:58;19.70;;;5.65;;
18596;SDS011;9428;50.950;6.912;2022-12-24T17:19:45;21.63;;;5.78;;
18596;SDS011;9428;50.950;6.912;2022-12-24T17:22:33;24.23;;;6.57;;